sensor_id;sensor_type;location;lat;lon;timestamp;P1;durP1;ratioP1;P2;durP2;ratioP2
13061;SDS011;6597;52.218;9.882;2024-02-28T00:00:03;23.27;;;16.17;;
13061;SDS011;6597;52.218;9.882;2024-02-28T00:02:30;20.87;;;15.13;;
13061;SDS011;6597;52.218;9.882;2024-02-28T00:04:57;26.87;;;16.80;;
13061;SDS011;6597;52.218;9.882;2024-02-28T00:07:24;24.03;;;15.87;;
13061;SDS011;6597;52.218;9.882;2024-02-28T00:09:50;23.97;;;17.37;;
13061;SDS011;6597;52.218;9.882;2024-02-28T00:12:18;25.00;;;17.10;;
13061;SDS011;6597;52.218;9.882;2024-02-28T00:14:45;25.33;;;15.80;;
13061;SDS011;6597;52.218;9.882;2024-02-28T00:17:11;23.93;;;17.30;;
13061;SDS011;6597;52.218;9.882;2024-02-28T00:19:39;25.30;;;17.57;;
13061;SDS011;6597;52.218;9.882;2024-02-28T00:22:06;23.67;;;15.30;;
13061;SDS011;6597;52.218;9.882;2024-02-28T00:24:32;22.23;;;15.03;;
13061;SDS011;6597;52.218;9.882;2024-02-28T00:26:59;23.37;;;16.67;;
13061;SDS011;6597;52.218;9.882;2024-02-28T00:29:27;30.83;;;17.97;;
13061;SDS011;6597;52.218;9.882;2024-02-28T00:31:53;25.40;;;17.40;;
13061;SDS011;6597;52.218;9.882;2024-02-28T00:34:20;29.67;;;18.13;;
13061;SDS011;6597;52.218;9.882;2024-02-28T00:36:46;27.03;;;17.23;;
13061;SDS011;6597;52.218;9.882;2024-02-28T00:39:13;24.67;;;17.17;;
13061;SDS011;6597;52.218;9.882;2024-02-28T00:41:39;29.27;;;18.53;;
13061;SDS011;6597;52.218;9.882;2024-02-28T00:44:06;27.33;;;17.97;;
13061;SDS011;6597;52.218;9.882;2024-02-28T00:46:34;25.87;;;18.20;;
13061;SDS011;6597;52.218;9.882;2024-02-28T00:49:00;25.20;;;17.50;;
13061;SDS011;6597;52.218;9.882;2024-02-28T00:51:27;26.73;;;18.03;;
13061;SDS011;6597;52.218;9.882;2024-02-28T00:53:53;28.67;;;19.23;;
13061;SDS011;6597;52.218;9.882;2024-02-28T00:56:20;28.53;;;18.13;;
13061;SDS011;6597;52.218;9.882;2024-02-28T00:58:46;27.70;;;19.37;;
13061;SDS011;6597;52.218;9.882;2024-02-28T01:01:13;26.53;;;18.93;;
13061;SDS011;6597;52.218;9.882;2024-02-28T01:03:41;30.33;;;18.47;;
13061;SDS011;6597;52.218;9.882;2024-02-28T01:06:07;27.77;;;18.70;;
13061;SDS011;6597;52.218;9.882;2024-02-28T01:08:34;31.07;;;20.10;;
13061;SDS011;6597;52.218;9.882;2024-02-28T01:11:00;30.40;;;19.27;;
13061;SDS011;6597;52.218;9.882;2024-02-28T01:13:27;31.83;;;19.93;;
13061;SDS011;6597;52.218;9.882;2024-02-28T01:15:53;30.50;;;18.10;;
13061;SDS011;6597;52.218;9.882;2024-02-28T01:18:19;26.20;;;18.90;;
13061;SDS011;6597;52.218;9.882;2024-02-28T01:20:47;29.20;;;18.93;;
13061;SDS011;6597;52.218;9.882;2024-02-28T01:23:13;26.07;;;18.37;;
13061;SDS011;6597;52.218;9.882;2024-02-28T01:25:40;25.33;;;17.73;;
13061;SDS011;6597;52.218;9.882;2024-02-28T01:28:06;26.27;;;18.57;;
13061;SDS011;6597;52.218;9.882;2024-02-28T01:30:33;28.17;;;18.67;;
13061;SDS011;6597;52.218;9.882;2024-02-28T01:32:59;29.57;;;19.43;;
13061;SDS011;6597;52.218;9.882;2024-02-28T01:35:26;34.30;;;19.30;;
13061;SDS011;6597;52.218;9.882;2024-02-28T01:37:54;33.40;;;20.50;;
13061;SDS011;6597;52.218;9.882;2024-02-28T01:40:20;35.77;;;20.87;;
13061;SDS011;6597;52.218;9.882;2024-02-28T01:42:47;29.60;;;18.40;;
13061;SDS011;6597;52.218;9.882;2024-02-28T01:45:14;31.40;;;21.00;;
13061;SDS011;6597;52.218;9.882;2024-02-28T01:47:40;31.10;;;20.13;;
13061;SDS011;6597;52.218;9.882;2024-02-28T01:50:08;33.77;;;21.10;;
13061;SDS011;6597;52.218;9.882;2024-02-28T01:52:36;31.80;;;20.60;;
13061;SDS011;6597;52.218;9.882;2024-02-28T01:55:05;31.23;;;20.80;;
13061;SDS011;6597;52.218;9.882;2024-02-28T01:57:32;29.50;;;20.13;;
13061;SDS011;6597;52.218;9.882;2024-02-28T02:00:02;29.20;;;20.67;;
13061;SDS011;6597;52.218;9.882;2024-02-28T02:02:29;31.90;;;21.37;;
13061;SDS011;6597;52.218;9.882;2024-02-28T02:04:56;32.27;;;20.87;;
13061;SDS011;6597;52.218;9.882;2024-02-28T02:07:23;30.93;;;20.30;;
13061;SDS011;6597;52.218;9.882;2024-02-28T02:09:51;35.67;;;21.57;;
13061;SDS011;6597;52.218;9.882;2024-02-28T02:12:19;35.70;;;21.87;;
13061;SDS011;6597;52.218;9.882;2024-02-28T02:14:47;37.13;;;22.37;;
13061;SDS011;6597;52.218;9.882;2024-02-28T02:17:15;39.40;;;22.23;;
13061;SDS011;6597;52.218;9.882;2024-02-28T02:19:41;34.57;;;21.97;;
13061;SDS011;6597;52.218;9.882;2024-02-28T02:22:08;35.33;;;21.60;;
13061;SDS011;6597;52.218;9.882;2024-02-28T02:24:40;37.63;;;22.40;;
13061;SDS011;6597;52.218;9.882;2024-02-28T02:27:07;32.23;;;21.93;;
13061;SDS011;6597;52.218;9.882;2024-02-28T02:29:34;31.83;;;21.90;;
13061;SDS011;6597;52.218;9.882;2024-02-28T02:32:00;33.27;;;21.53;;
13061;SDS011;6597;52.218;9.882;2024-02-28T02:34:27;36.63;;;22.33;;
13061;SDS011;6597;52.218;9.882;2024-02-28T02:36:53;32.93;;;21.10;;
13061;SDS011;6597;52.218;9.882;2024-02-28T02:39:20;35.57;;;21.00;;
13061;SDS011;6597;52.218;9.882;2024-02-28T02:41:47;36.17;;;21.33;;
13061;SDS011;6597;52.218;9.882;2024-02-28T02:44:14;31.93;;;20.70;;
13061;SDS011;6597;52.218;9.882;2024-02-28T02:46:41;33.07;;;21.80;;
13061;SDS011;6597;52.218;9.882;2024-02-28T02:49:07;37.13;;;22.93;;
13061;SDS011;6597;52.218;9.882;2024-02-28T02:51:34;34.10;;;21.53;;
13061;SDS011;6597;52.218;9.882;2024-02-28T02:54:00;33.30;;;21.53;;
13061;SDS011;6597;52.218;9.882;2024-02-28T02:56:27;34.90;;;21.17;;
13061;SDS011;6597;52.218;9.882;2024-02-28T02:58:55;40.63;;;22.67;;
13061;SDS011;6597;52.218;9.882;2024-02-28T03:01:21;33.73;;;21.47;;
13061;SDS011;6597;52.218;9.882;2024-02-28T03:03:48;36.37;;;21.33;;
13061;SDS011;6597;52.218;9.882;2024-02-28T03:06:14;31.80;;;20.00;;
13061;SDS011;6597;52.218;9.882;2024-02-28T03:08:41;35.33;;;20.43;;
13061;SDS011;6597;52.218;9.882;2024-02-28T03:11:07;32.30;;;21.73;;
13061;SDS011;6597;52.218;9.882;2024-02-28T03:13:34;36.00;;;20.87;;
13061;SDS011;6597;52.218;9.882;2024-02-28T03:16:02;33.50;;;20.40;;
13061;SDS011;6597;52.218;9.882;2024-02-28T03:18:29;38.93;;;21.30;;
13061;SDS011;6597;52.218;9.882;2024-02-28T03:20:56;33.63;;;20.57;;
13061;SDS011;6597;52.218;9.882;2024-02-28T03:23:22;33.00;;;20.27;;
13061;SDS011;6597;52.218;9.882;2024-02-28T03:25:49;33.77;;;20.10;;
13061;SDS011;6597;52.218;9.882;2024-02-28T03:28:15;32.13;;;19.63;;
13061;SDS011;6597;52.218;9.882;2024-02-28T03:30:42;30.40;;;19.83;;
13061;SDS011;6597;52.218;9.882;2024-02-28T03:33:10;34.53;;;22.03;;
13061;SDS011;6597;52.218;9.882;2024-02-28T03:35:36;31.10;;;20.20;;
13061;SDS011;6597;52.218;9.882;2024-02-28T03:38:03;32.03;;;21.30;;
13061;SDS011;6597;52.218;9.882;2024-02-28T03:40:30;29.93;;;20.67;;
13061;SDS011;6597;52.218;9.882;2024-02-28T03:42:56;32.17;;;20.37;;
13061;SDS011;6597;52.218;9.882;2024-02-28T03:45:24;29.10;;;19.73;;
13061;SDS011;6597;52.218;9.882;2024-02-28T03:47:53;30.13;;;19.47;;
13061;SDS011;6597;52.218;9.882;2024-02-28T03:50:21;31.30;;;19.77;;
13061;SDS011;6597;52.218;9.882;2024-02-28T03:52:47;31.93;;;20.10;;
13061;SDS011;6597;52.218;9.882;2024-02-28T03:55:15;40.77;;;20.13;;
13061;SDS011;6597;52.218;9.882;2024-02-28T03:57:41;26.23;;;18.73;;
13061;SDS011;6597;52.218;9.882;2024-02-28T04:00:09;29.60;;;18.83;;
13061;SDS011;6597;52.218;9.882;2024-02-28T04:02:38;31.90;;;19.47;;
13061;SDS011;6597;52.218;9.882;2024-02-28T04:05:05;36.83;;;20.40;;
13061;SDS011;6597;52.218;9.882;2024-02-28T04:07:33;33.40;;;20.23;;
13061;SDS011;6597;52.218;9.882;2024-02-28T04:10:00;27.30;;;18.50;;
13061;SDS011;6597;52.218;9.882;2024-02-28T04:12:26;28.87;;;19.53;;
13061;SDS011;6597;52.218;9.882;2024-02-28T04:14:53;32.27;;;19.73;;
13061;SDS011;6597;52.218;9.882;2024-02-28T04:17:19;30.03;;;19.67;;
13061;SDS011;6597;52.218;9.882;2024-02-28T04:19:46;29.50;;;19.60;;
13061;SDS011;6597;52.218;9.882;2024-02-28T04:22:13;33.40;;;21.43;;
13061;SDS011;6597;52.218;9.882;2024-02-28T04:24:40;31.13;;;19.17;;
13061;SDS011;6597;52.218;9.882;2024-02-28T04:27:07;36.13;;;20.23;;
13061;SDS011;6597;52.218;9.882;2024-02-28T04:29:36;34.40;;;20.37;;
13061;SDS011;6597;52.218;9.882;2024-02-28T04:32:03;32.53;;;20.43;;
13061;SDS011;6597;52.218;9.882;2024-02-28T04:34:29;32.93;;;19.67;;
13061;SDS011;6597;52.218;9.882;2024-02-28T04:36:56;33.47;;;21.03;;
13061;SDS011;6597;52.218;9.882;2024-02-28T04:39:22;37.57;;;20.73;;
13061;SDS011;6597;52.218;9.882;2024-02-28T04:41:50;30.03;;;20.23;;
13061;SDS011;6597;52.218;9.882;2024-02-28T04:44:17;35.60;;;21.23;;
13061;SDS011;6597;52.218;9.882;2024-02-28T04:46:43;35.70;;;20.87;;
13061;SDS011;6597;52.218;9.882;2024-02-28T04:49:10;32.63;;;20.07;;
13061;SDS011;6597;52.218;9.882;2024-02-28T04:51:36;32.77;;;20.70;;
13061;SDS011;6597;52.218;9.882;2024-02-28T04:54:03;30.97;;;18.90;;
13061;SDS011;6597;52.218;9.882;2024-02-28T04:56:29;35.30;;;20.93;;
13061;SDS011;6597;52.218;9.882;2024-02-28T04:58:57;34.00;;;20.30;;
13061;SDS011;6597;52.218;9.882;2024-02-28T05:01:24;32.40;;;19.63;;
13061;SDS011;6597;52.218;9.882;2024-02-28T05:03:53;33.57;;;19.87;;
13061;SDS011;6597;52.218;9.882;2024-02-28T05:06:19;32.93;;;19.13;;
13061;SDS011;6597;52.218;9.882;2024-02-28T05:08:46;38.53;;;21.47;;
13061;SDS011;6597;52.218;9.882;2024-02-28T05:11:12;35.70;;;22.40;;
13061;SDS011;6597;52.218;9.882;2024-02-28T05:13:39;37.57;;;21.80;;
13061;SDS011;6597;52.218;9.882;2024-02-28T05:16:12;34.57;;;21.50;;
13061;SDS011;6597;52.218;9.882;2024-02-28T05:18:39;33.70;;;20.53;;
13061;SDS011;6597;52.218;9.882;2024-02-28T05:21:05;33.47;;;20.97;;
13061;SDS011;6597;52.218;9.882;2024-02-28T05:23:32;33.67;;;20.63;;
13061;SDS011;6597;52.218;9.882;2024-02-28T05:25:59;35.20;;;21.73;;
13061;SDS011;6597;52.218;9.882;2024-02-28T05:28:28;39.53;;;21.60;;
13061;SDS011;6597;52.218;9.882;2024-02-28T05:30:55;39.93;;;21.70;;
13061;SDS011;6597;52.218;9.882;2024-02-28T05:33:23;35.77;;;21.00;;
13061;SDS011;6597;52.218;9.882;2024-02-28T05:35:49;34.93;;;21.17;;
13061;SDS011;6597;52.218;9.882;2024-02-28T05:38:16;39.53;;;21.53;;
13061;SDS011;6597;52.218;9.882;2024-02-28T05:40:43;33.13;;;21.00;;
13061;SDS011;6597;52.218;9.882;2024-02-28T05:43:09;35.50;;;20.60;;
13061;SDS011;6597;52.218;9.882;2024-02-28T05:45:36;36.20;;;20.70;;
13061;SDS011;6597;52.218;9.882;2024-02-28T05:48:02;36.97;;;21.13;;
13061;SDS011;6597;52.218;9.882;2024-02-28T05:50:30;41.27;;;21.47;;
13061;SDS011;6597;52.218;9.882;2024-02-28T05:52:58;40.13;;;22.50;;
13061;SDS011;6597;52.218;9.882;2024-02-28T05:55:24;39.00;;;23.37;;
13061;SDS011;6597;52.218;9.882;2024-02-28T05:57:51;39.87;;;22.67;;
13061;SDS011;6597;52.218;9.882;2024-02-28T06:00:18;39.63;;;23.33;;
13061;SDS011;6597;52.218;9.882;2024-02-28T06:02:45;37.17;;;24.27;;
13061;SDS011;6597;52.218;9.882;2024-02-28T06:05:11;44.00;;;22.80;;
13061;SDS011;6597;52.218;9.882;2024-02-28T06:07:40;39.47;;;23.37;;
13061;SDS011;6597;52.218;9.882;2024-02-28T06:10:06;38.23;;;22.83;;
13061;SDS011;6597;52.218;9.882;2024-02-28T06:12:35;40.33;;;22.47;;
13061;SDS011;6597;52.218;9.882;2024-02-28T06:15:02;38.27;;;23.00;;
13061;SDS011;6597;52.218;9.882;2024-02-28T06:17:30;39.27;;;23.03;;
13061;SDS011;6597;52.218;9.882;2024-02-28T06:19:56;36.60;;;23.33;;
13061;SDS011;6597;52.218;9.882;2024-02-28T06:22:23;42.37;;;23.83;;
13061;SDS011;6597;52.218;9.882;2024-02-28T06:24:51;43.97;;;25.20;;
13061;SDS011;6597;52.218;9.882;2024-02-28T06:27:17;42.40;;;24.87;;
13061;SDS011;6597;52.218;9.882;2024-02-28T06:29:44;39.47;;;23.60;;
13061;SDS011;6597;52.218;9.882;2024-02-28T06:32:10;35.40;;;22.97;;
13061;SDS011;6597;52.218;9.882;2024-02-28T06:34:37;45.13;;;23.60;;
13061;SDS011;6597;52.218;9.882;2024-02-28T06:37:03;40.03;;;23.20;;
13061;SDS011;6597;52.218;9.882;2024-02-28T06:39:30;39.83;;;23.13;;
13061;SDS011;6597;52.218;9.882;2024-02-28T06:41:58;44.43;;;24.23;;
13061;SDS011;6597;52.218;9.882;2024-02-28T06:44:24;41.70;;;23.53;;
13061;SDS011;6597;52.218;9.882;2024-02-28T06:46:51;44.37;;;24.70;;
13061;SDS011;6597;52.218;9.882;2024-02-28T06:49:17;41.00;;;23.13;;
13061;SDS011;6597;52.218;9.882;2024-02-28T06:51:44;43.30;;;24.37;;
13061;SDS011;6597;52.218;9.882;2024-02-28T06:54:11;44.40;;;25.50;;
13061;SDS011;6597;52.218;9.882;2024-02-28T06:56:37;40.87;;;23.87;;
13061;SDS011;6597;52.218;9.882;2024-02-28T06:59:05;45.93;;;26.53;;
13061;SDS011;6597;52.218;9.882;2024-02-28T07:01:32;49.20;;;26.33;;
13061;SDS011;6597;52.218;9.882;2024-02-28T07:03:59;47.30;;;26.67;;
13061;SDS011;6597;52.218;9.882;2024-02-28T07:06:25;43.90;;;24.93;;
13061;SDS011;6597;52.218;9.882;2024-02-28T07:08:52;43.87;;;24.93;;
13061;SDS011;6597;52.218;9.882;2024-02-28T07:11:18;46.73;;;23.27;;
13061;SDS011;6597;52.218;9.882;2024-02-28T07:13:46;38.90;;;24.00;;
13061;SDS011;6597;52.218;9.882;2024-02-28T07:16:14;44.93;;;25.00;;
13061;SDS011;6597;52.218;9.882;2024-02-28T07:18:41;47.13;;;25.73;;
13061;SDS011;6597;52.218;9.882;2024-02-28T07:21:07;48.00;;;25.83;;
13061;SDS011;6597;52.218;9.882;2024-02-28T07:23:34;46.40;;;24.80;;
13061;SDS011;6597;52.218;9.882;2024-02-28T07:26:00;41.90;;;24.70;;
13061;SDS011;6597;52.218;9.882;2024-02-28T07:28:27;41.07;;;24.10;;
13061;SDS011;6597;52.218;9.882;2024-02-28T07:30:53;44.63;;;23.27;;
13061;SDS011;6597;52.218;9.882;2024-02-28T07:33:21;42.43;;;25.23;;
13061;SDS011;6597;52.218;9.882;2024-02-28T07:35:48;38.97;;;24.97;;
13061;SDS011;6597;52.218;9.882;2024-02-28T07:38:16;42.37;;;24.50;;
13061;SDS011;6597;52.218;9.882;2024-02-28T07:40:45;44.47;;;24.13;;
13061;SDS011;6597;52.218;9.882;2024-02-28T07:43:11;44.27;;;24.60;;
13061;SDS011;6597;52.218;9.882;2024-02-28T07:45:38;43.40;;;24.57;;
13061;SDS011;6597;52.218;9.882;2024-02-28T07:48:05;49.57;;;28.80;;
13061;SDS011;6597;52.218;9.882;2024-02-28T07:50:33;43.33;;;25.87;;
13061;SDS011;6597;52.218;9.882;2024-02-28T07:53:00;50.20;;;27.23;;
13061;SDS011;6597;52.218;9.882;2024-02-28T07:55:26;46.43;;;25.97;;
13061;SDS011;6597;52.218;9.882;2024-02-28T07:57:53;50.77;;;26.93;;
13061;SDS011;6597;52.218;9.882;2024-02-28T08:00:20;52.60;;;27.17;;
13061;SDS011;6597;52.218;9.882;2024-02-28T08:02:47;45.20;;;25.83;;
13061;SDS011;6597;52.218;9.882;2024-02-28T08:05:13;53.63;;;28.37;;
13061;SDS011;6597;52.218;9.882;2024-02-28T08:07:42;50.30;;;27.80;;
13061;SDS011;6597;52.218;9.882;2024-02-28T08:10:08;50.97;;;27.37;;
13061;SDS011;6597;52.218;9.882;2024-02-28T08:12:36;46.93;;;26.70;;
13061;SDS011;6597;52.218;9.882;2024-02-28T08:15:03;51.90;;;29.57;;
13061;SDS011;6597;52.218;9.882;2024-02-28T08:17:30;58.93;;;29.37;;
13061;SDS011;6597;52.218;9.882;2024-02-28T08:19:57;56.93;;;28.57;;
13061;SDS011;6597;52.218;9.882;2024-02-28T08:22:23;58.77;;;29.33;;
13061;SDS011;6597;52.218;9.882;2024-02-28T08:24:52;54.67;;;28.17;;
13061;SDS011;6597;52.218;9.882;2024-02-28T08:27:18;62.27;;;29.80;;
13061;SDS011;6597;52.218;9.882;2024-02-28T08:29:45;56.63;;;30.03;;
13061;SDS011;6597;52.218;9.882;2024-02-28T08:32:12;57.67;;;29.53;;
13061;SDS011;6597;52.218;9.882;2024-02-28T08:34:38;57.10;;;29.23;;
13061;SDS011;6597;52.218;9.882;2024-02-28T08:37:04;54.30;;;29.43;;
13061;SDS011;6597;52.218;9.882;2024-02-28T08:39:31;51.80;;;28.00;;
13061;SDS011;6597;52.218;9.882;2024-02-28T08:41:59;49.43;;;25.83;;
13061;SDS011;6597;52.218;9.882;2024-02-28T08:44:25;57.67;;;28.13;;
13061;SDS011;6597;52.218;9.882;2024-02-28T08:46:52;57.80;;;29.00;;
13061;SDS011;6597;52.218;9.882;2024-02-28T08:49:18;52.77;;;26.73;;
13061;SDS011;6597;52.218;9.882;2024-02-28T08:51:45;52.83;;;26.70;;
13061;SDS011;6597;52.218;9.882;2024-02-28T08:54:12;51.03;;;27.33;;
13061;SDS011;6597;52.218;9.882;2024-02-28T08:56:38;51.83;;;26.63;;
13061;SDS011;6597;52.218;9.882;2024-02-28T08:59:06;46.73;;;26.37;;
13061;SDS011;6597;52.218;9.882;2024-02-28T09:01:33;48.00;;;24.80;;
13061;SDS011;6597;52.218;9.882;2024-02-28T09:04:01;49.63;;;26.23;;
13061;SDS011;6597;52.218;9.882;2024-02-28T09:06:27;46.17;;;26.13;;
13061;SDS011;6597;52.218;9.882;2024-02-28T09:08:54;44.33;;;25.17;;
13061;SDS011;6597;52.218;9.882;2024-02-28T09:11:19;48.23;;;25.33;;
13061;SDS011;6597;52.218;9.882;2024-02-28T09:13:46;52.33;;;27.00;;
13061;SDS011;6597;52.218;9.882;2024-02-28T09:16:14;46.60;;;25.13;;
13061;SDS011;6597;52.218;9.882;2024-02-28T09:18:40;42.97;;;24.83;;
13061;SDS011;6597;52.218;9.882;2024-02-28T09:21:07;48.90;;;24.93;;
13061;SDS011;6597;52.218;9.882;2024-02-28T09:23:34;43.23;;;23.70;;
13061;SDS011;6597;52.218;9.882;2024-02-28T09:26:02;52.17;;;26.90;;
13061;SDS011;6597;52.218;9.882;2024-02-28T09:28:29;42.63;;;24.63;;
13061;SDS011;6597;52.218;9.882;2024-02-28T09:30:56;43.93;;;24.87;;
13061;SDS011;6597;52.218;9.882;2024-02-28T09:33:24;47.10;;;24.70;;
13061;SDS011;6597;52.218;9.882;2024-02-28T09:35:50;47.07;;;24.50;;
13061;SDS011;6597;52.218;9.882;2024-02-28T09:38:17;42.97;;;23.87;;
13061;SDS011;6597;52.218;9.882;2024-02-28T09:40:45;45.90;;;25.73;;
13061;SDS011;6597;52.218;9.882;2024-02-28T09:43:14;45.53;;;25.40;;
13061;SDS011;6597;52.218;9.882;2024-02-28T09:45:45;42.23;;;24.13;;
13061;SDS011;6597;52.218;9.882;2024-02-28T09:48:12;47.53;;;24.27;;
13061;SDS011;6597;52.218;9.882;2024-02-28T09:50:41;41.17;;;25.50;;
13061;SDS011;6597;52.218;9.882;2024-02-28T09:53:08;44.80;;;24.97;;
13061;SDS011;6597;52.218;9.882;2024-02-28T09:55:35;56.27;;;25.93;;
13061;SDS011;6597;52.218;9.882;2024-02-28T09:58:02;40.90;;;24.07;;
13061;SDS011;6597;52.218;9.882;2024-02-28T10:00:29;46.70;;;23.70;;
13061;SDS011;6597;52.218;9.882;2024-02-28T10:02:57;45.20;;;24.67;;
13061;SDS011;6597;52.218;9.882;2024-02-28T10:05:24;42.50;;;24.43;;
13061;SDS011;6597;52.218;9.882;2024-02-28T10:07:53;45.93;;;25.33;;
13061;SDS011;6597;52.218;9.882;2024-02-28T10:10:21;43.17;;;24.37;;
13061;SDS011;6597;52.218;9.882;2024-02-28T10:12:48;52.20;;;24.47;;
13061;SDS011;6597;52.218;9.882;2024-02-28T10:15:15;40.30;;;23.37;;
13061;SDS011;6597;52.218;9.882;2024-02-28T10:17:41;48.37;;;25.90;;
13061;SDS011;6597;52.218;9.882;2024-02-28T10:20:09;42.53;;;24.60;;
13061;SDS011;6597;52.218;9.882;2024-02-28T10:22:36;48.37;;;25.17;;
13061;SDS011;6597;52.218;9.882;2024-02-28T10:25:05;36.73;;;21.90;;
13061;SDS011;6597;52.218;9.882;2024-02-28T10:27:32;42.53;;;24.57;;
13061;SDS011;6597;52.218;9.882;2024-02-28T10:29:59;43.53;;;24.10;;
13061;SDS011;6597;52.218;9.882;2024-02-28T10:32:26;44.07;;;22.63;;
13061;SDS011;6597;52.218;9.882;2024-02-28T10:34:53;42.30;;;25.53;;
13061;SDS011;6597;52.218;9.882;2024-02-28T10:37:20;39.00;;;22.57;;
13061;SDS011;6597;52.218;9.882;2024-02-28T10:39:48;40.70;;;23.83;;
13061;SDS011;6597;52.218;9.882;2024-02-28T10:42:19;45.10;;;23.70;;
13061;SDS011;6597;52.218;9.882;2024-02-28T10:44:49;41.90;;;24.30;;
13061;SDS011;6597;52.218;9.882;2024-02-28T10:47:17;47.70;;;24.90;;
13061;SDS011;6597;52.218;9.882;2024-02-28T10:49:44;40.73;;;23.63;;
13061;SDS011;6597;52.218;9.882;2024-02-28T10:52:10;41.13;;;23.87;;
13061;SDS011;6597;52.218;9.882;2024-02-28T10:54:38;46.87;;;25.60;;
13061;SDS011;6597;52.218;9.882;2024-02-28T10:57:07;38.07;;;24.20;;
13061;SDS011;6597;52.218;9.882;2024-02-28T10:59:35;39.23;;;22.90;;
13061;SDS011;6597;52.218;9.882;2024-02-28T11:02:04;39.53;;;24.03;;
13061;SDS011;6597;52.218;9.882;2024-02-28T11:04:32;44.10;;;24.10;;
13061;SDS011;6597;52.218;9.882;2024-02-28T11:07:00;42.60;;;22.33;;
13061;SDS011;6597;52.218;9.882;2024-02-28T11:09:28;45.73;;;23.73;;
13061;SDS011;6597;52.218;9.882;2024-02-28T11:11:55;38.47;;;23.77;;
13061;SDS011;6597;52.218;9.882;2024-02-28T11:14:22;41.47;;;23.23;;
13061;SDS011;6597;52.218;9.882;2024-02-28T11:17:00;49.43;;;25.07;;
13061;SDS011;6597;52.218;9.882;2024-02-28T11:19:28;40.10;;;23.13;;
13061;SDS011;6597;52.218;9.882;2024-02-28T11:21:55;41.00;;;23.47;;
13061;SDS011;6597;52.218;9.882;2024-02-28T11:24:22;41.57;;;24.40;;
13061;SDS011;6597;52.218;9.882;2024-02-28T11:26:50;43.20;;;24.67;;
13061;SDS011;6597;52.218;9.882;2024-02-28T11:29:21;50.60;;;26.03;;
13061;SDS011;6597;52.218;9.882;2024-02-28T11:31:48;40.63;;;23.37;;
13061;SDS011;6597;52.218;9.882;2024-02-28T11:34:16;42.57;;;25.20;;
13061;SDS011;6597;52.218;9.882;2024-02-28T11:36:42;44.43;;;24.77;;
13061;SDS011;6597;52.218;9.882;2024-02-28T11:39:09;42.00;;;24.60;;
13061;SDS011;6597;52.218;9.882;2024-02-28T11:41:35;41.17;;;23.97;;
13061;SDS011;6597;52.218;9.882;2024-02-28T11:44:02;37.53;;;22.67;;
13061;SDS011;6597;52.218;9.882;2024-02-28T11:46:28;49.10;;;24.63;;
13061;SDS011;6597;52.218;9.882;2024-02-28T11:48:55;44.83;;;25.13;;
13061;SDS011;6597;52.218;9.882;2024-02-28T11:51:23;48.90;;;26.33;;
13061;SDS011;6597;52.218;9.882;2024-02-28T11:53:50;38.40;;;24.23;;
13061;SDS011;6597;52.218;9.882;2024-02-28T11:56:16;45.70;;;25.30;;
13061;SDS011;6597;52.218;9.882;2024-02-28T11:58:49;43.23;;;23.57;;
13061;SDS011;6597;52.218;9.882;2024-02-28T12:01:16;39.80;;;24.37;;
13061;SDS011;6597;52.218;9.882;2024-02-28T12:03:44;39.67;;;24.70;;
13061;SDS011;6597;52.218;9.882;2024-02-28T12:06:11;42.07;;;24.70;;
13061;SDS011;6597;52.218;9.882;2024-02-28T12:08:39;47.40;;;25.13;;
13061;SDS011;6597;52.218;9.882;2024-02-28T12:11:06;46.90;;;25.13;;
13061;SDS011;6597;52.218;9.882;2024-02-28T12:13:33;45.50;;;24.73;;
13061;SDS011;6597;52.218;9.882;2024-02-28T12:16:00;49.70;;;26.53;;
13061;SDS011;6597;52.218;9.882;2024-02-28T12:18:26;42.10;;;24.27;;
13061;SDS011;6597;52.218;9.882;2024-02-28T12:20:53;42.27;;;24.00;;
13061;SDS011;6597;52.218;9.882;2024-02-28T12:23:20;49.30;;;26.20;;
13061;SDS011;6597;52.218;9.882;2024-02-28T12:25:48;52.17;;;26.27;;
13061;SDS011;6597;52.218;9.882;2024-02-28T12:28:15;49.70;;;26.40;;
13061;SDS011;6597;52.218;9.882;2024-02-28T12:30:42;44.67;;;25.10;;
13061;SDS011;6597;52.218;9.882;2024-02-28T12:33:09;44.57;;;24.53;;
13061;SDS011;6597;52.218;9.882;2024-02-28T12:35:36;48.50;;;26.17;;
13061;SDS011;6597;52.218;9.882;2024-02-28T12:38:03;45.33;;;26.10;;
13061;SDS011;6597;52.218;9.882;2024-02-28T12:40:30;48.87;;;26.37;;
13061;SDS011;6597;52.218;9.882;2024-02-28T12:42:58;41.93;;;24.63;;
13061;SDS011;6597;52.218;9.882;2024-02-28T12:45:24;45.77;;;25.67;;
13061;SDS011;6597;52.218;9.882;2024-02-28T12:47:51;46.60;;;26.60;;
13061;SDS011;6597;52.218;9.882;2024-02-28T12:50:21;48.40;;;27.43;;
13061;SDS011;6597;52.218;9.882;2024-02-28T12:52:49;45.17;;;25.30;;
13061;SDS011;6597;52.218;9.882;2024-02-28T12:55:18;48.03;;;25.73;;
13061;SDS011;6597;52.218;9.882;2024-02-28T12:57:45;49.73;;;25.37;;
13061;SDS011;6597;52.218;9.882;2024-02-28T13:00:13;46.03;;;25.63;;
13061;SDS011;6597;52.218;9.882;2024-02-28T13:02:40;47.03;;;26.00;;
13061;SDS011;6597;52.218;9.882;2024-02-28T13:05:07;44.70;;;24.67;;
13061;SDS011;6597;52.218;9.882;2024-02-28T13:07:34;52.07;;;27.23;;
13061;SDS011;6597;52.218;9.882;2024-02-28T13:10:01;46.77;;;25.93;;
13061;SDS011;6597;52.218;9.882;2024-02-28T13:12:29;51.87;;;26.77;;
13061;SDS011;6597;52.218;9.882;2024-02-28T13:14:57;44.20;;;25.63;;
13061;SDS011;6597;52.218;9.882;2024-02-28T13:17:25;49.07;;;26.10;;
13061;SDS011;6597;52.218;9.882;2024-02-28T13:19:52;43.23;;;25.47;;
13061;SDS011;6597;52.218;9.882;2024-02-28T13:22:18;51.30;;;27.10;;
13061;SDS011;6597;52.218;9.882;2024-02-28T13:24:45;44.97;;;26.00;;
13061;SDS011;6597;52.218;9.882;2024-02-28T13:27:11;45.83;;;26.40;;
13061;SDS011;6597;52.218;9.882;2024-02-28T13:29:38;46.67;;;24.80;;
13061;SDS011;6597;52.218;9.882;2024-02-28T13:32:04;48.27;;;26.07;;
13061;SDS011;6597;52.218;9.882;2024-02-28T13:34:33;47.83;;;24.90;;
13061;SDS011;6597;52.218;9.882;2024-02-28T13:36:59;50.77;;;24.70;;
13061;SDS011;6597;52.218;9.882;2024-02-28T13:39:26;47.13;;;25.43;;
13061;SDS011;6597;52.218;9.882;2024-02-28T13:41:52;66.10;;;26.90;;
13061;SDS011;6597;52.218;9.882;2024-02-28T13:44:19;47.27;;;25.30;;
13061;SDS011;6597;52.218;9.882;2024-02-28T13:46:46;48.87;;;25.27;;
13061;SDS011;6597;52.218;9.882;2024-02-28T13:49:12;44.50;;;24.70;;
13061;SDS011;6597;52.218;9.882;2024-02-28T13:51:41;41.60;;;24.27;;
13061;SDS011;6597;52.218;9.882;2024-02-28T13:54:08;47.87;;;25.57;;
13061;SDS011;6597;52.218;9.882;2024-02-28T13:56:34;44.83;;;24.47;;
13061;SDS011;6597;52.218;9.882;2024-02-28T13:59:02;49.17;;;26.17;;
13061;SDS011;6597;52.218;9.882;2024-02-28T14:01:29;45.73;;;23.87;;
13061;SDS011;6597;52.218;9.882;2024-02-28T14:03:56;46.87;;;25.00;;
13061;SDS011;6597;52.218;9.882;2024-02-28T14:06:22;43.93;;;23.50;;
13061;SDS011;6597;52.218;9.882;2024-02-28T14:08:50;46.80;;;23.90;;
13061;SDS011;6597;52.218;9.882;2024-02-28T14:11:17;40.87;;;23.47;;
13061;SDS011;6597;52.218;9.882;2024-02-28T14:13:44;44.37;;;23.07;;
13061;SDS011;6597;52.218;9.882;2024-02-28T14:16:11;45.37;;;23.73;;
13061;SDS011;6597;52.218;9.882;2024-02-28T14:18:38;46.10;;;24.13;;
13061;SDS011;6597;52.218;9.882;2024-02-28T14:21:04;46.00;;;23.63;;
13061;SDS011;6597;52.218;9.882;2024-02-28T14:23:31;49.17;;;24.07;;
13061;SDS011;6597;52.218;9.882;2024-02-28T14:25:59;43.97;;;22.00;;
13061;SDS011;6597;52.218;9.882;2024-02-28T14:28:27;46.47;;;22.33;;
13061;SDS011;6597;52.218;9.882;2024-02-28T14:30:53;48.40;;;22.20;;